createdAt,value
2022-09-05T00:00:11.793Z,14.57
2022-09-05T00:03:03.403Z,14.62
2022-09-05T00:06:03.058Z,14.67
2022-09-05T00:08:51.298Z,14.73
2022-09-05T00:11:43.967Z,14.79
2022-09-05T00:15:17.756Z,14.85
2022-09-05T00:18:42.452Z,14.91
2022-09-05T00:24:30.904Z,14.96
2022-09-05T00:24:34.703Z,15.03
2022-09-05T00:27:20.124Z,15.10
2022-09-05T00:31:07.504Z,15.15
2022-09-05T00:33:27.156Z,15.22
2022-09-05T00:36:12.535Z,15.27
2022-09-05T00:38:41.357Z,15.35
2022-09-05T00:41:10.163Z,15.40
2022-09-05T00:43:44.049Z,15.46
2022-09-05T00:46:28.973Z,15.50
2022-09-05T00:49:21.874Z,15.54
2022-09-05T00:51:55.921Z,15.58
2022-09-05T00:55:00.119Z,15.60
2022-09-05T00:58:05.465Z,15.64
2022-09-05T01:00:35.522Z,15.71
2022-09-05T01:03:11.411Z,15.74
2022-09-05T01:06:15.985Z,15.77
2022-09-05T01:08:52.149Z,15.81
2022-09-05T01:11:36.416Z,15.86
2022-09-05T01:14:12.929Z,15.91
2022-09-05T01:16:46.392Z,15.95
2022-09-05T01:19:16.024Z,15.97
2022-09-05T01:22:23.514Z,16.00
2022-09-05T01:25:25.485Z,16.03
2022-09-05T01:29:13.533Z,16.06
2022-09-05T01:31:17.468Z,16.10
2022-09-05T01:33:50.755Z,16.13
2022-09-05T01:36:49.890Z,16.15
2022-09-05T01:40:14.921Z,16.17
2022-09-05T01:42:46.231Z,16.17
2022-09-05T01:45:40.829Z,16.17
2022-09-05T01:48:16.344Z,16.19
2022-09-05T01:50:57.988Z,16.20
2022-09-05T01:53:40.492Z,16.21
2022-09-05T01:56:22.908Z,16.21
2022-09-05T01:59:34.918Z,16.20
2022-09-05T02:02:13.601Z,16.19
2022-09-05T02:05:06.611Z,16.20
2022-09-05T02:07:52.505Z,16.19
2022-09-05T02:10:31.742Z,16.16
2022-09-05T02:13:15.898Z,16.14
2022-09-05T02:16:08.178Z,16.12
2022-09-05T02:18:54.998Z,16.14
2022-09-05T02:21:33.693Z,16.16
2022-09-05T02:24:24.402Z,16.20
2022-09-05T02:26:59.344Z,16.23
2022-09-05T02:29:51.793Z,16.26
2022-09-05T02:32:24.277Z,16.31
2022-09-05T02:34:54.190Z,16.34
2022-09-05T02:41:20.295Z,16.36
2022-09-05T02:45:02.464Z,16.35
2022-09-05T02:45:12.504Z,16.36
2022-09-05T02:46:53.175Z,16.34
2022-09-05T02:50:22.167Z,16.27
2022-09-05T02:57:24.666Z,16.27
2022-09-05T02:57:42.482Z,16.27
2022-09-05T02:58:19.578Z,16.31
2022-09-05T03:00:52.748Z,16.30
2022-09-05T03:03:26.885Z,16.30
2022-09-05T03:06:00.925Z,16.31
2022-09-05T03:08:53.114Z,16.33
2022-09-05T03:11:28.974Z,16.38
2022-09-05T03:14:35.860Z,16.42
2022-09-05T03:17:36.876Z,16.57
2022-09-05T03:20:22.743Z,16.67
2022-09-05T03:23:11.987Z,16.70
2022-09-05T03:25:57.373Z,16.74
2022-09-05T03:28:39.682Z,16.79
2022-09-05T03:31:07.223Z,16.87
2022-09-05T03:33:50.691Z,16.93
2022-09-05T03:36:39.768Z,16.98
2022-09-05T03:39:22.355Z,17.02
2022-09-05T03:42:31.057Z,17.06
2022-09-05T03:45:08.007Z,17.11
2022-09-05T03:47:50.221Z,16.98
2022-09-05T03:56:10.542Z,16.93
2022-09-05T03:57:10.995Z,16.94
2022-09-05T03:57:24.063Z,16.97
2022-09-05T04:00:06.734Z,17.02
2022-09-05T04:08:06.780Z,17.03
2022-09-05T04:08:25.310Z,17.00
2022-09-05T04:08:43.553Z,17.00
2022-09-05T04:11:16.399Z,17.05
2022-09-05T04:13:55.001Z,17.15
2022-09-05T04:16:22.892Z,17.11
2022-09-05T04:19:05.093Z,17.10
2022-09-05T04:22:06.454Z,17.10
2022-09-05T04:24:47.037Z,17.09
2022-09-05T04:27:29.275Z,17.17
2022-09-05T04:30:39.613Z,17.23
2022-09-05T04:33:18.378Z,17.26
2022-09-05T04:35:56.671Z,17.31
2022-09-05T04:38:37.858Z,17.32
2022-09-05T04:41:18.586Z,17.31
2022-09-05T04:43:57.933Z,17.38
2022-09-05T04:46:30.708Z,17.44
2022-09-05T04:49:06.066Z,17.47
2022-09-05T04:52:14.307Z,17.53
2022-09-05T04:55:09.565Z,17.61
2022-09-05T04:57:41.891Z,17.68
2022-09-05T05:06:00.032Z,17.76
2022-09-05T05:06:11.230Z,17.86
2022-09-05T05:06:15.111Z,17.96
2022-09-05T05:08:58.539Z,18.08
2022-09-05T05:17:59.442Z,18.33
2022-09-05T05:17:59.665Z,18.21
2022-09-05T05:18:13.920Z,18.42
2022-09-05T05:20:43.025Z,18.53
2022-09-05T05:23:15.389Z,18.65
2022-09-05T05:25:55.454Z,18.77
2022-09-05T05:28:27.331Z,18.87
2022-09-05T05:31:01.461Z,19.00
2022-09-05T05:33:32.669Z,19.12
2022-09-05T05:36:00.512Z,19.23
2022-09-05T05:38:38.275Z,19.33
2022-09-05T05:41:14.072Z,19.48
2022-09-05T05:43:46.305Z,19.58
2022-09-05T05:46:16.162Z,19.71
2022-09-05T05:48:44.153Z,19.84
2022-09-05T05:51:38.340Z,19.95
2022-09-05T05:54:24.175Z,20.11
2022-09-05T05:57:15.173Z,20.26
2022-09-05T05:59:56.258Z,20.44
2022-09-05T06:03:26.954Z,20.62
2022-09-05T06:06:25.898Z,20.85
2022-09-05T06:14:50.873Z,21.06
2022-09-05T06:15:07.080Z,21.29
2022-09-05T06:15:27.195Z,21.50
2022-09-05T06:18:16.969Z,21.72
2022-09-05T06:22:08.619Z,21.91
2022-09-05T06:23:43.127Z,22.07
2022-09-05T06:26:32.501Z,22.23
2022-09-05T06:29:05.684Z,22.41
2022-09-05T06:31:52.669Z,22.60
2022-09-05T06:34:32.579Z,22.80
2022-09-05T06:37:09.978Z,22.97
2022-09-05T06:39:47.984Z,23.13
2022-09-05T06:42:42.543Z,23.26
2022-09-05T06:45:28.959Z,23.38
2022-09-05T06:48:23.843Z,23.44
2022-09-05T06:51:44.873Z,23.50
2022-09-05T06:54:12.868Z,23.71
2022-09-05T06:57:10.329Z,23.89
2022-09-05T07:00:22.497Z,24.13
2022-09-05T07:03:22.725Z,24.38
2022-09-05T07:05:56.512Z,24.57
2022-09-05T07:08:36.297Z,24.64
2022-09-05T07:11:16.003Z,24.69
2022-09-05T07:13:55.421Z,24.78
2022-09-05T07:16:26.690Z,24.85
2022-09-05T07:19:27.180Z,25.02
2022-09-05T07:22:46.594Z,25.21
2022-09-05T07:25:10.273Z,25.43
2022-09-05T07:28:25.965Z,25.58
2022-09-05T07:30:29.577Z,25.71
2022-09-05T07:32:57.141Z,25.84
2022-09-05T07:35:29.421Z,25.80
2022-09-05T07:38:20.641Z,25.67
2022-09-05T07:40:56.541Z,25.68
2022-09-05T07:43:28.760Z,25.89
2022-09-05T07:45:56.537Z,26.06
2022-09-05T07:48:34.192Z,26.25
2022-09-05T07:56:54.607Z,26.54
2022-09-05T07:56:59.248Z,26.80
2022-09-05T07:57:20.891Z,26.95
2022-09-05T07:59:34.562Z,27.07
2022-09-05T08:02:01.817Z,27.24
2022-09-05T08:04:30.436Z,27.39
2022-09-05T08:07:47.223Z,27.33
2022-09-05T08:10:08.064Z,27.28
2022-09-05T08:13:00.602Z,27.52
2022-09-05T08:15:29.640Z,27.91
2022-09-05T08:18:21.519Z,28.33
2022-09-05T08:20:51.342Z,28.63
2022-09-05T08:23:51.981Z,28.90
2022-09-05T08:26:23.538Z,29.15
2022-09-05T08:29:21.618Z,29.30
2022-09-05T08:31:52.772Z,29.46
2022-09-05T08:34:45.129Z,29.67
2022-09-05T08:37:17.859Z,30.03
2022-09-05T08:40:09.658Z,30.44
2022-09-05T08:44:58.234Z,30.77
2022-09-05T08:46:44.007Z,30.75
2022-09-05T08:49:16.332Z,30.66
2022-09-05T08:52:32.599Z,30.82
2022-09-05T08:55:16.197Z,31.04
2022-09-05T08:57:46.834Z,31.19
2022-09-05T09:00:20.552Z,31.26
2022-09-05T09:03:25.948Z,31.30
2022-09-05T09:06:13.522Z,31.35
2022-09-05T09:09:05.953Z,31.14
2022-09-05T09:11:52.165Z,31.03
2022-09-05T09:15:10.112Z,30.85
2022-09-05T09:17:55.693Z,30.85
2022-09-05T09:20:47.777Z,30.95
2022-09-05T09:23:32.144Z,31.19
2022-09-05T09:26:18.586Z,31.44
2022-09-05T09:28:56.489Z,31.76
2022-09-05T09:31:50.366Z,31.83
2022-09-05T09:34:26.422Z,31.59
2022-09-05T09:37:05.053Z,31.45
2022-09-05T09:39:45.458Z,31.29
2022-09-05T09:42:47.805Z,31.31
2022-09-05T09:45:28.802Z,31.35
2022-09-05T09:48:16.580Z,31.45
2022-09-05T09:50:46.458Z,31.59
2022-09-05T09:53:50.420Z,31.67
2022-09-05T09:56:45.730Z,31.63
2022-09-05T09:59:31.412Z,31.37
2022-09-05T10:03:47.099Z,30.97
2022-09-05T10:10:33.406Z,30.36
2022-09-05T10:10:57.331Z,30.09
2022-09-05T10:12:01.202Z,30.13
2022-09-05T10:14:55.532Z,30.08
2022-09-05T10:17:40.493Z,30.04
2022-09-05T10:20:14.994Z,30.03
2022-09-05T10:22:52.998Z,29.87
2022-09-05T10:25:29.268Z,29.65
2022-09-05T10:28:05.631Z,29.46
2022-09-05T10:32:58.086Z,29.25
2022-09-05T10:35:14.792Z,29.04
2022-09-05T10:36:55.296Z,28.87
2022-09-05T10:39:25.988Z,28.74
2022-09-05T10:42:03.602Z,28.67
2022-09-05T10:44:44.627Z,28.55
2022-09-05T10:47:17.825Z,28.41
2022-09-05T10:49:47.884Z,28.27
2022-09-05T10:52:20.371Z,28.15
2022-09-05T10:55:14.643Z,28.00
2022-09-05T10:58:04.467Z,27.80
2022-09-05T11:02:17.232Z,27.52
2022-09-05T11:03:57.260Z,27.27
2022-09-05T11:06:46.899Z,27.25
2022-09-05T11:09:27.494Z,27.32
2022-09-05T11:12:22.777Z,27.37
2022-09-05T11:14:54.229Z,27.38
2022-09-05T11:17:42.100Z,27.42
2022-09-05T11:20:35.458Z,27.53
2022-09-05T11:23:15.495Z,27.68
2022-09-05T11:25:43.262Z,27.96
2022-09-05T11:28:16.189Z,28.27
2022-09-05T11:30:45.529Z,28.51
2022-09-05T11:39:50.798Z,28.64
2022-09-05T11:39:52.868Z,28.93
2022-09-05T11:40:28.493Z,29.19
2022-09-05T11:43:25.117Z,29.49
2022-09-05T11:45:58.729Z,29.83
2022-09-05T11:48:53.505Z,30.05
2022-09-05T11:51:48.780Z,29.99
2022-09-05T11:54:55.873Z,29.86
2022-09-05T11:57:34.209Z,29.83
2022-09-05T12:00:32.185Z,29.73
2022-09-05T12:04:00.311Z,29.61
2022-09-05T12:07:15.489Z,29.38
2022-09-05T12:10:47.390Z,29.38
2022-09-05T12:13:17.452Z,29.59
2022-09-05T12:16:07.716Z,29.66
2022-09-05T12:18:45.699Z,29.71
2022-09-05T12:21:33.458Z,29.74
2022-09-05T12:25:16.160Z,29.76
2022-09-05T12:27:35.701Z,29.57
2022-09-05T12:30:00.586Z,29.41
2022-09-05T12:34:44.496Z,29.36
2022-09-05T12:36:12.192Z,29.29
2022-09-05T12:41:32.087Z,29.39
2022-09-05T12:42:09.902Z,29.60
2022-09-05T12:45:09.958Z,29.95
2022-09-05T12:48:13.578Z,30.21
2022-09-05T12:51:05.616Z,30.27
2022-09-05T12:53:46.891Z,30.26
2022-09-05T12:59:27.074Z,30.41
2022-09-05T13:03:05.122Z,30.46
2022-09-05T13:03:05.820Z,30.25
2022-09-05T13:05:13.058Z,29.86
2022-09-05T13:07:42.973Z,29.33
2022-09-05T13:13:30.564Z,28.87
2022-09-05T13:14:59.830Z,28.70
2022-09-05T13:15:53.434Z,28.75
2022-09-05T13:18:31.483Z,28.78
2022-09-05T13:21:31.446Z,28.78
2022-09-05T13:24:22.290Z,28.87
2022-09-05T13:27:08.966Z,28.97
2022-09-05T13:31:18.266Z,29.05
2022-09-05T13:38:05.339Z,29.09
2022-09-05T13:38:17.741Z,29.05
2022-09-05T13:39:07.322Z,29.04
2022-09-05T13:41:49.013Z,29.14
2022-09-05T13:44:25.257Z,29.28
2022-09-05T13:46:58.967Z,29.43
2022-09-05T13:49:55.730Z,29.51
2022-09-05T13:52:26.669Z,29.52
2022-09-05T13:55:03.461Z,29.52
2022-09-05T13:57:39.195Z,29.46
2022-09-05T14:00:28.135Z,29.45
2022-09-05T14:03:37.983Z,29.27
2022-09-05T14:06:31.204Z,28.88
2022-09-05T14:12:37.291Z,28.50
2022-09-05T14:15:29.586Z,28.45
2022-09-05T14:18:25.297Z,28.23
2022-09-05T14:21:17.517Z,27.97
2022-09-05T14:23:56.163Z,27.75
2022-09-05T14:26:39.187Z,27.55
2022-09-05T14:29:16.065Z,27.35
2022-09-05T14:37:36.883Z,27.05
2022-09-05T14:37:51.084Z,26.75
2022-09-05T14:38:13.637Z,26.58
2022-09-05T14:41:11.060Z,26.37
2022-09-05T14:43:53.559Z,26.12
2022-09-05T14:46:49.877Z,25.91
2022-09-05T14:49:39.543Z,25.73
2022-09-05T14:52:23.871Z,25.59
2022-09-05T15:02:44.134Z,25.39
2022-09-05T15:02:56.587Z,25.37
2022-09-05T15:06:32.909Z,25.30
2022-09-05T15:12:15.088Z,25.26
2022-09-05T15:12:24.408Z,25.19
2022-09-05T15:14:39.542Z,25.10
2022-09-05T15:17:06.621Z,25.04
2022-09-05T15:20:05.530Z,25.00
2022-09-05T15:22:35.672Z,24.99
2022-09-05T15:25:12.265Z,24.96
2022-09-05T15:27:45.388Z,24.94
2022-09-05T15:30:35.356Z,24.90
2022-09-05T15:33:25.789Z,24.80
2022-09-05T15:35:53.690Z,24.68
2022-09-05T15:38:25.165Z,24.58
2022-09-05T15:41:08.274Z,24.51
2022-09-05T15:43:38.458Z,24.44
2022-09-05T15:46:05.785Z,24.35
2022-09-05T15:48:35.061Z,24.25
2022-09-05T15:51:10.099Z,24.17
2022-09-05T15:53:37.865Z,24.08
2022-09-05T15:56:11.062Z,23.98
2022-09-05T15:58:54.194Z,23.86
2022-09-05T16:01:58.734Z,23.74
2022-09-05T16:06:05.335Z,23.59
2022-09-05T16:10:27.814Z,23.45
2022-09-05T16:10:45.711Z,23.32
2022-09-05T16:12:54.519Z,23.16
2022-09-05T16:17:59.070Z,23.02
2022-09-05T16:23:17.890Z,22.88
2022-09-05T16:23:23.942Z,22.74
2022-09-05T16:24:05.267Z,22.59
2022-09-05T16:26:41.235Z,22.47
2022-09-05T16:29:26.172Z,22.33
2022-09-05T16:31:59.978Z,22.17
2022-09-05T16:34:30.648Z,22.01
2022-09-05T16:37:08.315Z,21.82
2022-09-05T16:39:38.818Z,21.67
2022-09-05T16:42:12.278Z,21.52
2022-09-05T16:44:46.512Z,21.35
2022-09-05T16:47:32.596Z,21.14
2022-09-05T16:50:26.151Z,20.93
2022-09-05T16:53:30.705Z,20.71
2022-09-05T16:56:03.405Z,20.54
2022-09-05T16:58:37.853Z,20.41
2022-09-05T17:01:31.826Z,20.26
2022-09-05T17:04:20.666Z,20.09
2022-09-05T17:07:09.876Z,19.99
2022-09-05T17:09:37.036Z,19.91
2022-09-05T17:12:09.506Z,19.86
2022-09-05T17:14:47.411Z,19.84
2022-09-05T17:17:44.008Z,19.81
2022-09-05T17:20:09.577Z,19.76
2022-09-05T17:25:20.978Z,19.70
2022-09-05T17:29:25.751Z,19.56
2022-09-05T17:29:26.822Z,19.63
2022-09-05T17:31:54.100Z,19.47
2022-09-05T17:34:35.311Z,19.40
2022-09-05T17:37:22.950Z,19.33
2022-09-05T17:39:56.582Z,19.23
2022-09-05T17:42:29.813Z,19.16
2022-09-05T17:45:22.983Z,19.09
2022-09-05T17:47:52.201Z,18.98
2022-09-05T17:50:38.343Z,18.90
2022-09-05T17:53:26.513Z,18.82
2022-09-05T17:55:55.197Z,18.73
2022-09-05T17:58:48.867Z,18.63
2022-09-05T18:01:21.316Z,18.54
2022-09-05T18:03:55.803Z,18.43
2022-09-05T18:06:44.365Z,18.31
2022-09-05T18:09:41.538Z,18.21
2022-09-05T18:13:11.613Z,18.12
2022-09-05T18:15:39.967Z,18.02
2022-09-05T18:18:31.341Z,17.95
2022-09-05T18:21:21.842Z,17.91
2022-09-05T18:23:54.829Z,17.87
2022-09-05T18:26:41.191Z,17.83
2022-09-05T18:29:58.596Z,17.79
2022-09-05T18:32:45.326Z,17.67
2022-09-05T18:35:38.308Z,17.58
2022-09-05T18:38:16.857Z,17.51
2022-09-05T18:41:00.510Z,17.46
2022-09-05T18:43:31.051Z,17.39
2022-09-05T18:46:08.240Z,17.33
2022-09-05T18:49:07.145Z,17.28
2022-09-05T18:52:17.220Z,17.22
2022-09-05T18:56:10.651Z,17.19
2022-09-05T18:57:39.603Z,17.21
2022-09-05T19:00:13.866Z,17.23
2022-09-05T19:02:51.569Z,17.25
2022-09-05T19:05:46.116Z,17.27
2022-09-05T19:08:28.655Z,17.28
2022-09-05T19:11:00.125Z,17.30
2022-09-05T19:13:32.381Z,17.31
2022-09-05T19:16:42.077Z,17.30
2022-09-05T19:19:08.784Z,17.29
2022-09-05T19:21:39.090Z,17.26
2022-09-05T19:24:10.104Z,17.19
2022-09-05T19:26:36.982Z,17.10
2022-09-05T19:36:45.280Z,17.02
2022-09-05T19:36:54.137Z,16.95
2022-09-05T19:37:24.339Z,16.91
2022-09-05T19:37:47.631Z,16.84
2022-09-05T19:47:31.172Z,16.75
2022-09-05T19:47:42.804Z,16.70
2022-09-05T19:47:44.711Z,16.71
2022-09-05T19:49:05.767Z,16.67
2022-09-05T19:51:32.923Z,16.63
2022-09-05T19:54:05.479Z,16.58
2022-09-05T19:56:38.628Z,16.53
2022-09-05T19:59:39.357Z,16.53
2022-09-05T20:02:20.458Z,16.55
2022-09-05T20:04:52.816Z,16.58
2022-09-05T20:07:24.608Z,16.58
2022-09-05T20:09:53.182Z,16.55
2022-09-05T20:12:30.510Z,16.50
2022-09-05T20:14:57.966Z,16.47
2022-09-05T20:17:29.809Z,16.47
2022-09-05T20:20:09.463Z,16.46
2022-09-05T20:22:49.378Z,16.43
2022-09-05T20:25:41.867Z,16.42
2022-09-05T20:28:12.739Z,16.41
2022-09-05T20:30:51.260Z,16.40
2022-09-05T20:33:39.274Z,16.38
2022-09-05T20:43:07.990Z,16.33
2022-09-05T20:43:17.035Z,16.33
2022-09-05T20:43:31.793Z,16.39
2022-09-05T20:45:03.856Z,16.45
2022-09-05T20:54:12.840Z,16.52
2022-09-05T20:54:21.141Z,16.58
2022-09-05T20:54:28.653Z,16.62
2022-09-05T20:56:31.095Z,16.63
2022-09-05T20:59:01.046Z,16.63
2022-09-05T21:01:29.756Z,16.62
2022-09-05T21:04:01.604Z,16.60
2022-09-05T21:06:41.528Z,16.56
2022-09-05T21:09:13.297Z,16.51
2022-09-05T21:11:40.350Z,16.48
2022-09-05T21:14:07.508Z,16.43
2022-09-05T21:16:45.291Z,16.39
2022-09-05T21:19:35.239Z,16.35
2022-09-05T21:22:45.581Z,16.31
2022-09-05T21:25:17.450Z,16.27
2022-09-05T21:28:07.063Z,16.23
2022-09-05T21:30:35.760Z,16.19
2022-09-05T21:33:11.850Z,16.16
2022-09-05T21:35:46.729Z,16.14
2022-09-05T21:38:16.955Z,16.16
2022-09-05T21:41:03.373Z,16.13
2022-09-05T21:47:30.845Z,16.07
2022-09-05T21:47:49.809Z,16.01
2022-09-05T21:49:09.689Z,15.95
2022-09-05T21:51:37.466Z,15.94
2022-09-05T21:59:14.355Z,15.91
2022-09-05T21:59:33.301Z,15.87
2022-09-05T21:59:46.857Z,15.82
2022-09-05T22:02:16.958Z,15.75
2022-09-05T22:04:44.129Z,15.67
2022-09-05T22:07:16.407Z,15.58
2022-09-05T22:09:52.067Z,15.48
2022-09-05T22:12:30.056Z,15.41
2022-09-05T22:14:58.192Z,15.38
2022-09-05T22:17:45.690Z,15.34
2022-09-05T22:20:16.282Z,15.31
2022-09-05T22:22:46.867Z,15.27
2022-09-05T22:25:34.306Z,15.21
2022-09-05T22:28:06.522Z,15.18
2022-09-05T22:30:35.994Z,15.16
2022-09-05T22:33:05.605Z,15.11
2022-09-05T22:35:36.450Z,15.06
2022-09-05T22:38:10.949Z,14.97
2022-09-05T22:40:40.999Z,14.88
2022-09-05T22:43:09.429Z,14.86
2022-09-05T22:45:37.667Z,14.85
2022-09-05T22:48:12.546Z,14.82
2022-09-05T22:50:40.179Z,14.82
2022-09-05T22:53:08.773Z,14.83
2022-09-05T22:55:41.673Z,14.82
2022-09-05T22:58:10.066Z,14.82
2022-09-05T23:00:37.911Z,14.79
2022-09-05T23:03:06.428Z,14.75
2022-09-05T23:05:33.584Z,14.72
2022-09-05T23:08:01.431Z,14.67
2022-09-05T23:10:29.204Z,14.62
2022-09-05T23:12:56.070Z,14.55
2022-09-05T23:15:23.088Z,14.47
2022-09-05T23:17:57.337Z,14.39
2022-09-05T23:20:25.585Z,14.31
2022-09-05T23:22:52.948Z,14.22
2022-09-05T23:25:21.701Z,14.13
2022-09-05T23:27:50.677Z,14.06
2022-09-05T23:30:18.004Z,14.00
2022-09-05T23:32:50.507Z,13.95
2022-09-05T23:35:18.056Z,13.94
2022-09-05T23:37:45.616Z,13.93
2022-09-05T23:40:20.178Z,13.92
2022-09-05T23:43:05.631Z,13.90
2022-09-05T23:45:32.486Z,13.88
2022-09-05T23:47:59.538Z,13.87
2022-09-05T23:50:27.518Z,13.84
2022-09-05T23:52:54.979Z,13.83
2022-09-05T23:55:23.442Z,13.82
2022-09-05T23:57:50.409Z,13.85
